sensor_id;sensor_type;location;lat;lon;timestamp;temperature;humidity
45319;DHT22;31057;48.498;32.260;2023-02-15T00:00:03;1.50;99.90
45319;DHT22;31057;48.498;32.260;2023-02-15T00:02:06;1.50;99.90
45319;DHT22;31057;48.498;32.260;2023-02-15T00:04:08;1.50;99.90
45319;DHT22;31057;48.498;32.260;2023-02-15T00:06:11;1.50;99.90
45319;DHT22;31057;48.498;32.260;2023-02-15T00:08:12;1.50;99.90
45319;DHT22;31057;48.498;32.260;2023-02-15T00:10:14;1.50;99.90
45319;DHT22;31057;48.498;32.260;2023-02-15T00:12:16;1.50;99.90
45319;DHT22;31057;48.498;32.260;2023-02-15T00:14:19;1.50;99.90
45319;DHT22;31057;48.498;32.260;2023-02-15T00:16:21;1.50;99.90
45319;DHT22;31057;48.498;32.260;2023-02-15T00:18:23;1.40;99.90
45319;DHT22;31057;48.498;32.260;2023-02-15T00:20:25;1.50;99.90
45319;DHT22;31057;48.498;32.260;2023-02-15T00:22:27;1.40;99.90
45319;DHT22;31057;48.498;32.260;2023-02-15T00:24:28;1.40;99.90
45319;DHT22;31057;48.498;32.260;2023-02-15T00:26:30;1.30;99.90
45319;DHT22;31057;48.498;32.260;2023-02-15T00:28:32;1.30;99.90
45319;DHT22;31057;48.498;32.260;2023-02-15T00:30:34;1.40;99.90
45319;DHT22;31057;48.498;32.260;2023-02-15T00:32:35;1.30;99.90
45319;DHT22;31057;48.498;32.260;2023-02-15T00:34:37;1.30;99.90
45319;DHT22;31057;48.498;32.260;2023-02-15T00:36:40;1.30;99.90
45319;DHT22;31057;48.498;32.260;2023-02-15T00:38:42;1.30;99.90
45319;DHT22;31057;48.498;32.260;2023-02-15T00:40:44;1.30;99.90
45319;DHT22;31057;48.498;32.260;2023-02-15T00:42:52;1.30;99.90
45319;DHT22;31057;48.498;32.260;2023-02-15T00:44:54;1.20;99.90
45319;DHT22;31057;48.498;32.260;2023-02-15T00:46:56;1.20;99.90
45319;DHT22;31057;48.498;32.260;2023-02-15T00:48:58;1.20;99.90
45319;DHT22;31057;48.498;32.260;2023-02-15T00:51:00;1.20;99.90
45319;DHT22;31057;48.498;32.260;2023-02-15T00:53:02;1.10;99.90
45319;DHT22;31057;48.498;32.260;2023-02-15T00:55:04;1.20;99.90
45319;DHT22;31057;48.498;32.260;2023-02-15T00:57:06;1.10;99.90
45319;DHT22;31057;48.498;32.260;2023-02-15T00:59:08;1.10;99.90
45319;DHT22;31057;48.498;32.260;2023-02-15T01:01:12;1.10;99.90
45319;DHT22;31057;48.498;32.260;2023-02-15T01:03:14;1.20;99.90
45319;DHT22;31057;48.498;32.260;2023-02-15T01:05:17;1.20;99.90
45319;DHT22;31057;48.498;32.260;2023-02-15T01:07:19;1.20;99.90
45319;DHT22;31057;48.498;32.260;2023-02-15T01:09:20;1.20;99.90
45319;DHT22;31057;48.498;32.260;2023-02-15T01:11:22;1.20;99.90
45319;DHT22;31057;48.498;32.260;2023-02-15T01:13:24;1.20;99.90
45319;DHT22;31057;48.498;32.260;2023-02-15T01:15:26;1.20;99.90
45319;DHT22;31057;48.498;32.260;2023-02-15T01:17:28;1.20;99.90
45319;DHT22;31057;48.498;32.260;2023-02-15T01:19:30;1.30;99.90
45319;DHT22;31057;48.498;32.260;2023-02-15T01:21:31;1.30;99.90
45319;DHT22;31057;48.498;32.260;2023-02-15T01:23:36;1.30;99.90
45319;DHT22;31057;48.498;32.260;2023-02-15T01:25:38;1.30;99.90
45319;DHT22;31057;48.498;32.260;2023-02-15T01:27:40;1.30;99.90
45319;DHT22;31057;48.498;32.260;2023-02-15T01:29:42;1.30;99.90
45319;DHT22;31057;48.498;32.260;2023-02-15T01:31:44;1.30;99.90
45319;DHT22;31057;48.498;32.260;2023-02-15T01:33:46;1.20;99.90
45319;DHT22;31057;48.498;32.260;2023-02-15T01:35:48;1.30;99.90
45319;DHT22;31057;48.498;32.260;2023-02-15T01:37:50;1.30;99.90
45319;DHT22;31057;48.498;32.260;2023-02-15T01:39:52;1.30;99.90
45319;DHT22;31057;48.498;32.260;2023-02-15T01:41:55;1.20;99.90
45319;DHT22;31057;48.498;32.260;2023-02-15T01:43:57;1.20;99.90
45319;DHT22;31057;48.498;32.260;2023-02-15T01:46:00;1.20;99.90
45319;DHT22;31057;48.498;32.260;2023-02-15T01:50:07;1.20;99.90
45319;DHT22;31057;48.498;32.260;2023-02-15T01:52:12;1.20;99.90
45319;DHT22;31057;48.498;32.260;2023-02-15T01:54:20;1.20;99.90
45319;DHT22;31057;48.498;32.260;2023-02-15T01:56:33;1.20;99.90
45319;DHT22;31057;48.498;32.260;2023-02-15T01:58:35;1.20;99.90
45319;DHT22;31057;48.498;32.260;2023-02-15T02:00:37;1.20;99.90
45319;DHT22;31057;48.498;32.260;2023-02-15T02:02:40;1.20;99.90
45319;DHT22;31057;48.498;32.260;2023-02-15T02:06:46;1.10;99.90
45319;DHT22;31057;48.498;32.260;2023-02-15T02:08:48;1.10;99.90
45319;DHT22;31057;48.498;32.260;2023-02-15T02:10:50;1.10;99.90
45319;DHT22;31057;48.498;32.260;2023-02-15T02:12:52;1.10;99.90
45319;DHT22;31057;48.498;32.260;2023-02-15T02:14:55;1.10;99.90
45319;DHT22;31057;48.498;32.260;2023-02-15T02:17:02;1.10;99.90
45319;DHT22;31057;48.498;32.260;2023-02-15T02:34:50;1.10;99.90
45319;DHT22;31057;48.498;32.260;2023-02-15T02:39:23;1.10;99.90
45319;DHT22;31057;48.498;32.260;2023-02-15T02:45:45;1.10;99.90
45319;DHT22;31057;48.498;32.260;2023-02-15T02:47:56;1.10;99.90
45319;DHT22;31057;48.498;32.260;2023-02-15T02:50:01;1.10;99.90
45319;DHT22;31057;48.498;32.260;2023-02-15T02:52:05;1.10;99.90
45319;DHT22;31057;48.498;32.260;2023-02-15T02:54:08;1.10;99.90
45319;DHT22;31057;48.498;32.260;2023-02-15T02:56:13;1.10;99.90
45319;DHT22;31057;48.498;32.260;2023-02-15T03:00:27;1.10;99.90
45319;DHT22;31057;48.498;32.260;2023-02-15T03:02:32;1.10;99.90
45319;DHT22;31057;48.498;32.260;2023-02-15T03:04:36;1.10;99.90
45319;DHT22;31057;48.498;32.260;2023-02-15T03:06:47;1.10;99.90
45319;DHT22;31057;48.498;32.260;2023-02-15T03:08:51;1.10;99.90
45319;DHT22;31057;48.498;32.260;2023-02-15T03:10:56;1.10;99.90
45319;DHT22;31057;48.498;32.260;2023-02-15T03:12:58;1.10;99.90
45319;DHT22;31057;48.498;32.260;2023-02-15T03:15:09;1.10;99.90
45319;DHT22;31057;48.498;32.260;2023-02-15T03:17:12;1.10;99.90
45319;DHT22;31057;48.498;32.260;2023-02-15T03:19:16;1.10;99.90
45319;DHT22;31057;48.498;32.260;2023-02-15T03:21:20;1.10;99.90
45319;DHT22;31057;48.498;32.260;2023-02-15T03:23:24;1.10;99.90
45319;DHT22;31057;48.498;32.260;2023-02-15T03:25:27;1.10;99.90
45319;DHT22;31057;48.498;32.260;2023-02-15T03:27:33;1.10;99.90
45319;DHT22;31057;48.498;32.260;2023-02-15T03:29:37;1.10;99.90
45319;DHT22;31057;48.498;32.260;2023-02-15T03:31:40;1.10;99.90
45319;DHT22;31057;48.498;32.260;2023-02-15T03:33:49;1.10;99.90
45319;DHT22;31057;48.498;32.260;2023-02-15T03:38:00;1.10;99.90
45319;DHT22;31057;48.498;32.260;2023-02-15T03:40:16;1.10;99.90
45319;DHT22;31057;48.498;32.260;2023-02-15T03:42:38;1.10;99.90
45319;DHT22;31057;48.498;32.260;2023-02-15T03:47:05;1.10;99.90
45319;DHT22;31057;48.498;32.260;2023-02-15T03:49:15;1.10;99.90
45319;DHT22;31057;48.498;32.260;2023-02-15T03:51:20;1.10;99.90
45319;DHT22;31057;48.498;32.260;2023-02-15T03:53:35;1.10;99.90
45319;DHT22;31057;48.498;32.260;2023-02-15T03:55:37;1.10;99.90
45319;DHT22;31057;48.498;32.260;2023-02-15T03:57:39;1.10;99.90
45319;DHT22;31057;48.498;32.260;2023-02-15T04:00:00;1.10;99.90
45319;DHT22;31057;48.498;32.260;2023-02-15T04:02:22;1.10;99.90
45319;DHT22;31057;48.498;32.260;2023-02-15T04:06:33;1.10;99.90
45319;DHT22;31057;48.498;32.260;2023-02-15T04:08:35;1.10;99.90
45319;DHT22;31057;48.498;32.260;2023-02-15T04:10:55;1.10;99.90
45319;DHT22;31057;48.498;32.260;2023-02-15T04:12:57;1.10;99.90
45319;DHT22;31057;48.498;32.260;2023-02-15T04:14:59;1.10;99.90
45319;DHT22;31057;48.498;32.260;2023-02-15T04:17:20;1.10;99.90
45319;DHT22;31057;48.498;32.260;2023-02-15T04:19:21;1.10;99.90
45319;DHT22;31057;48.498;32.260;2023-02-15T04:21:42;1.10;99.90
45319;DHT22;31057;48.498;32.260;2023-02-15T04:24:02;1.10;99.90
45319;DHT22;31057;48.498;32.260;2023-02-15T04:26:22;1.10;99.90
45319;DHT22;31057;48.498;32.260;2023-02-15T04:28:24;1.10;99.90
45319;DHT22;31057;48.498;32.260;2023-02-15T04:30:26;1.10;99.90
45319;DHT22;31057;48.498;32.260;2023-02-15T04:32:28;1.10;99.90
45319;DHT22;31057;48.498;32.260;2023-02-15T04:34:30;1.10;99.90
45319;DHT22;31057;48.498;32.260;2023-02-15T04:36:32;1.10;99.90
45319;DHT22;31057;48.498;32.260;2023-02-15T04:38:33;1.10;99.90
45319;DHT22;31057;48.498;32.260;2023-02-15T04:40:35;1.10;99.90
45319;DHT22;31057;48.498;32.260;2023-02-15T04:42:37;1.10;99.90
45319;DHT22;31057;48.498;32.260;2023-02-15T04:44:39;1.10;99.90
45319;DHT22;31057;48.498;32.260;2023-02-15T04:46:41;1.10;99.90
45319;DHT22;31057;48.498;32.260;2023-02-15T04:48:43;1.10;99.90
45319;DHT22;31057;48.498;32.260;2023-02-15T04:50:45;1.10;99.90
45319;DHT22;31057;48.498;32.260;2023-02-15T04:52:47;1.10;99.90
45319;DHT22;31057;48.498;32.260;2023-02-15T04:54:48;1.10;99.90
45319;DHT22;31057;48.498;32.260;2023-02-15T04:56:50;1.10;99.90
45319;DHT22;31057;48.498;32.260;2023-02-15T04:58:52;1.20;99.90
45319;DHT22;31057;48.498;32.260;2023-02-15T05:00:57;1.10;99.90
45319;DHT22;31057;48.498;32.260;2023-02-15T05:02:59;1.10;99.90
45319;DHT22;31057;48.498;32.260;2023-02-15T05:05:00;1.10;99.90
45319;DHT22;31057;48.498;32.260;2023-02-15T05:07:02;1.10;99.90
45319;DHT22;31057;48.498;32.260;2023-02-15T05:09:04;1.20;99.90
45319;DHT22;31057;48.498;32.260;2023-02-15T05:11:06;1.20;99.90
45319;DHT22;31057;48.498;32.260;2023-02-15T05:13:07;1.10;99.90
45319;DHT22;31057;48.498;32.260;2023-02-15T05:15:09;1.10;99.90
45319;DHT22;31057;48.498;32.260;2023-02-15T05:17:11;1.10;99.90
45319;DHT22;31057;48.498;32.260;2023-02-15T05:19:13;1.10;99.90
45319;DHT22;31057;48.498;32.260;2023-02-15T05:21:15;1.10;99.90
45319;DHT22;31057;48.498;32.260;2023-02-15T05:23:18;1.10;99.90
45319;DHT22;31057;48.498;32.260;2023-02-15T05:25:20;1.10;99.90
45319;DHT22;31057;48.498;32.260;2023-02-15T05:27:40;1.10;99.90
45319;DHT22;31057;48.498;32.260;2023-02-15T05:30:01;1.10;99.90
45319;DHT22;31057;48.498;32.260;2023-02-15T05:32:03;1.10;99.90
45319;DHT22;31057;48.498;32.260;2023-02-15T05:34:06;1.10;99.90
45319;DHT22;31057;48.498;32.260;2023-02-15T05:36:08;1.10;99.90
45319;DHT22;31057;48.498;32.260;2023-02-15T05:38:10;1.10;99.90
45319;DHT22;31057;48.498;32.260;2023-02-15T05:40:11;1.00;99.90
45319;DHT22;31057;48.498;32.260;2023-02-15T05:42:13;1.10;99.90
45319;DHT22;31057;48.498;32.260;2023-02-15T05:44:15;1.10;99.90
45319;DHT22;31057;48.498;32.260;2023-02-15T05:46:17;1.10;99.90
45319;DHT22;31057;48.498;32.260;2023-02-15T05:48:19;1.10;99.90
45319;DHT22;31057;48.498;32.260;2023-02-15T05:50:21;1.10;99.90
45319;DHT22;31057;48.498;32.260;2023-02-15T05:52:23;1.10;99.90
45319;DHT22;31057;48.498;32.260;2023-02-15T05:54:24;1.10;99.90
45319;DHT22;31057;48.498;32.260;2023-02-15T05:56:26;1.10;99.90
45319;DHT22;31057;48.498;32.260;2023-02-15T05:58:29;1.10;99.90
45319;DHT22;31057;48.498;32.260;2023-02-15T06:00:31;1.10;99.90
45319;DHT22;31057;48.498;32.260;2023-02-15T06:02:36;1.20;99.90
45319;DHT22;31057;48.498;32.260;2023-02-15T06:04:38;1.20;99.90
45319;DHT22;31057;48.498;32.260;2023-02-15T06:06:40;1.10;99.90
45319;DHT22;31057;48.498;32.260;2023-02-15T06:08:42;1.20;99.90
45319;DHT22;31057;48.498;32.260;2023-02-15T06:10:45;1.20;99.90
45319;DHT22;31057;48.498;32.260;2023-02-15T06:12:47;1.20;99.90
45319;DHT22;31057;48.498;32.260;2023-02-15T06:14:49;1.20;99.90
45319;DHT22;31057;48.498;32.260;2023-02-15T06:16:50;1.20;99.90
45319;DHT22;31057;48.498;32.260;2023-02-15T06:18:52;1.20;99.90
45319;DHT22;31057;48.498;32.260;2023-02-15T06:20:54;1.20;99.90
45319;DHT22;31057;48.498;32.260;2023-02-15T06:22:56;1.20;99.90
45319;DHT22;31057;48.498;32.260;2023-02-15T06:24:58;1.20;99.90
45319;DHT22;31057;48.498;32.260;2023-02-15T06:26:59;1.20;99.90
45319;DHT22;31057;48.498;32.260;2023-02-15T06:29:02;1.20;99.90
45319;DHT22;31057;48.498;32.260;2023-02-15T06:31:03;1.20;99.90
45319;DHT22;31057;48.498;32.260;2023-02-15T06:33:05;1.20;99.90
45319;DHT22;31057;48.498;32.260;2023-02-15T06:35:07;1.20;99.90
45319;DHT22;31057;48.498;32.260;2023-02-15T06:37:09;1.20;99.90
45319;DHT22;31057;48.498;32.260;2023-02-15T06:39:11;1.20;99.90
45319;DHT22;31057;48.498;32.260;2023-02-15T06:41:12;1.30;99.90
45319;DHT22;31057;48.498;32.260;2023-02-15T06:43:14;1.40;99.90
45319;DHT22;31057;48.498;32.260;2023-02-15T06:45:16;1.30;99.90
45319;DHT22;31057;48.498;32.260;2023-02-15T06:47:18;1.30;99.90
45319;DHT22;31057;48.498;32.260;2023-02-15T06:49:19;1.30;99.90
45319;DHT22;31057;48.498;32.260;2023-02-15T06:51:21;1.30;99.90
45319;DHT22;31057;48.498;32.260;2023-02-15T06:53:23;1.30;99.90
45319;DHT22;31057;48.498;32.260;2023-02-15T06:55:25;1.30;99.90
45319;DHT22;31057;48.498;32.260;2023-02-15T06:57:27;1.30;99.90
45319;DHT22;31057;48.498;32.260;2023-02-15T06:59:28;1.30;99.90
45319;DHT22;31057;48.498;32.260;2023-02-15T07:01:30;1.30;99.90
45319;DHT22;31057;48.498;32.260;2023-02-15T07:03:32;1.30;99.90
45319;DHT22;31057;48.498;32.260;2023-02-15T07:05:34;1.30;99.90
45319;DHT22;31057;48.498;32.260;2023-02-15T07:07:36;1.30;99.90
45319;DHT22;31057;48.498;32.260;2023-02-15T07:09:38;1.30;99.90
45319;DHT22;31057;48.498;32.260;2023-02-15T07:11:40;1.30;99.90
45319;DHT22;31057;48.498;32.260;2023-02-15T07:14:00;1.40;99.90
45319;DHT22;31057;48.498;32.260;2023-02-15T07:16:02;1.40;99.90
45319;DHT22;31057;48.498;32.260;2023-02-15T07:18:04;1.40;99.90
45319;DHT22;31057;48.498;32.260;2023-02-15T07:20:08;1.40;99.90
45319;DHT22;31057;48.498;32.260;2023-02-15T07:22:10;1.40;99.90
45319;DHT22;31057;48.498;32.260;2023-02-15T07:24:11;1.40;99.90
45319;DHT22;31057;48.498;32.260;2023-02-15T07:26:13;1.40;99.90
45319;DHT22;31057;48.498;32.260;2023-02-15T07:28:15;1.40;99.90
45319;DHT22;31057;48.498;32.260;2023-02-15T07:30:17;1.30;99.90
45319;DHT22;31057;48.498;32.260;2023-02-15T07:32:19;1.40;99.90
45319;DHT22;31057;48.498;32.260;2023-02-15T07:34:21;1.50;99.90
45319;DHT22;31057;48.498;32.260;2023-02-15T07:36:23;1.40;99.90
45319;DHT22;31057;48.498;32.260;2023-02-15T07:38:25;1.40;99.90
45319;DHT22;31057;48.498;32.260;2023-02-15T07:40:27;1.50;99.90
45319;DHT22;31057;48.498;32.260;2023-02-15T07:42:30;1.50;99.90
45319;DHT22;31057;48.498;32.260;2023-02-15T07:44:32;1.40;99.90
45319;DHT22;31057;48.498;32.260;2023-02-15T07:46:33;1.40;99.90
45319;DHT22;31057;48.498;32.260;2023-02-15T07:48:35;1.40;99.90
45319;DHT22;31057;48.498;32.260;2023-02-15T07:50:37;1.40;99.90
45319;DHT22;31057;48.498;32.260;2023-02-15T07:52:39;1.40;99.90
45319;DHT22;31057;48.498;32.260;2023-02-15T07:54:41;1.50;99.90
45319;DHT22;31057;48.498;32.260;2023-02-15T07:56:43;1.50;99.90
45319;DHT22;31057;48.498;32.260;2023-02-15T07:58:44;1.50;99.90
45319;DHT22;31057;48.498;32.260;2023-02-15T08:00:52;1.50;99.90
45319;DHT22;31057;48.498;32.260;2023-02-15T08:02:59;1.60;99.90
45319;DHT22;31057;48.498;32.260;2023-02-15T08:05:16;1.60;99.90
45319;DHT22;31057;48.498;32.260;2023-02-15T08:07:19;1.60;99.90
45319;DHT22;31057;48.498;32.260;2023-02-15T08:09:21;1.60;99.90
45319;DHT22;31057;48.498;32.260;2023-02-15T08:11:24;1.80;99.90
45319;DHT22;31057;48.498;32.260;2023-02-15T08:13:35;1.90;99.90
45319;DHT22;31057;48.498;32.260;2023-02-15T08:15:54;1.90;99.90
45319;DHT22;31057;48.498;32.260;2023-02-15T08:17:56;1.90;99.90
45319;DHT22;31057;48.498;32.260;2023-02-15T08:19:58;2.00;99.90
45319;DHT22;31057;48.498;32.260;2023-02-15T08:22:01;1.70;99.90
45319;DHT22;31057;48.498;32.260;2023-02-15T08:24:03;1.70;99.90
45319;DHT22;31057;48.498;32.260;2023-02-15T08:26:05;1.70;99.90
45319;DHT22;31057;48.498;32.260;2023-02-15T08:28:07;1.70;99.90
45319;DHT22;31057;48.498;32.260;2023-02-15T08:30:09;1.70;99.90
45319;DHT22;31057;48.498;32.260;2023-02-15T08:32:11;1.80;99.90
45319;DHT22;31057;48.498;32.260;2023-02-15T08:34:14;1.70;99.90
45319;DHT22;31057;48.498;32.260;2023-02-15T08:36:18;1.80;99.90
45319;DHT22;31057;48.498;32.260;2023-02-15T08:38:20;1.80;99.90
45319;DHT22;31057;48.498;32.260;2023-02-15T08:40:22;1.70;99.90
45319;DHT22;31057;48.498;32.260;2023-02-15T08:42:23;1.80;99.90
45319;DHT22;31057;48.498;32.260;2023-02-15T08:44:25;2.00;99.90
45319;DHT22;31057;48.498;32.260;2023-02-15T08:46:28;1.80;99.90
45319;DHT22;31057;48.498;32.260;2023-02-15T08:48:30;1.90;99.90
45319;DHT22;31057;48.498;32.260;2023-02-15T08:50:32;2.00;99.90
45319;DHT22;31057;48.498;32.260;2023-02-15T08:52:33;2.10;99.90
45319;DHT22;31057;48.498;32.260;2023-02-15T08:54:35;2.20;99.90
45319;DHT22;31057;48.498;32.260;2023-02-15T08:56:38;2.10;99.90
45319;DHT22;31057;48.498;32.260;2023-02-15T08:58:40;1.90;99.90
45319;DHT22;31057;48.498;32.260;2023-02-15T09:00:42;1.90;99.90
45319;DHT22;31057;48.498;32.260;2023-02-15T09:02:44;2.00;99.90
45319;DHT22;31057;48.498;32.260;2023-02-15T09:04:45;2.00;99.90
45319;DHT22;31057;48.498;32.260;2023-02-15T09:06:48;2.20;99.90
45319;DHT22;31057;48.498;32.260;2023-02-15T09:08:50;2.10;99.90
45319;DHT22;31057;48.498;32.260;2023-02-15T09:10:52;1.90;99.90
45319;DHT22;31057;48.498;32.260;2023-02-15T09:12:54;1.90;99.90
45319;DHT22;31057;48.498;32.260;2023-02-15T09:14:55;1.90;99.90
45319;DHT22;31057;48.498;32.260;2023-02-15T09:16:57;1.90;99.90
45319;DHT22;31057;48.498;32.260;2023-02-15T09:18:59;1.90;99.90
45319;DHT22;31057;48.498;32.260;2023-02-15T09:21:10;1.90;99.90
45319;DHT22;31057;48.498;32.260;2023-02-15T09:23:14;2.00;99.90
45319;DHT22;31057;48.498;32.260;2023-02-15T09:25:27;2.10;99.90
45319;DHT22;31057;48.498;32.260;2023-02-15T09:27:29;2.30;99.90
45319;DHT22;31057;48.498;32.260;2023-02-15T09:29:31;2.30;99.90
45319;DHT22;31057;48.498;32.260;2023-02-15T09:31:36;2.30;99.90
45319;DHT22;31057;48.498;32.260;2023-02-15T09:33:39;2.30;99.90
45319;DHT22;31057;48.498;32.260;2023-02-15T09:35:41;2.30;99.90
45319;DHT22;31057;48.498;32.260;2023-02-15T09:37:43;2.40;99.90
45319;DHT22;31057;48.498;32.260;2023-02-15T09:39:45;2.30;99.90
45319;DHT22;31057;48.498;32.260;2023-02-15T09:46:35;1.80;99.90
45319;DHT22;31057;48.498;32.260;2023-02-15T09:59:40;1.90;99.90
45319;DHT22;31057;48.498;32.260;2023-02-15T10:14:19;1.80;99.90
45319;DHT22;31057;48.498;32.260;2023-02-15T10:16:31;1.60;99.90
45319;DHT22;31057;48.498;32.260;2023-02-15T10:18:39;1.80;99.90
45319;DHT22;31057;48.498;32.260;2023-02-15T10:24:59;1.90;99.90
45319;DHT22;31057;48.498;32.260;2023-02-15T10:27:14;2.10;99.90
45319;DHT22;31057;48.498;32.260;2023-02-15T10:29:36;2.20;99.90
45319;DHT22;31057;48.498;32.260;2023-02-15T10:33:41;2.10;99.90
45319;DHT22;31057;48.498;32.260;2023-02-15T10:37:57;2.30;99.90
45319;DHT22;31057;48.498;32.260;2023-02-15T10:42:18;2.40;99.90
45319;DHT22;31057;48.498;32.260;2023-02-15T10:51:02;2.40;99.90
45319;DHT22;31057;48.498;32.260;2023-02-15T11:01:34;2.60;99.90
45319;DHT22;31057;48.498;32.260;2023-02-15T11:07:50;2.20;99.90
45319;DHT22;31057;48.498;32.260;2023-02-15T11:12:22;2.10;99.90
45319;DHT22;31057;48.498;32.260;2023-02-15T11:14:39;2.20;99.90
45319;DHT22;31057;48.498;32.260;2023-02-15T11:16:46;2.50;99.90
45319;DHT22;31057;48.498;32.260;2023-02-15T11:19:00;2.60;99.90
45319;DHT22;31057;48.498;32.260;2023-02-15T11:23:23;3.00;99.90
45319;DHT22;31057;48.498;32.260;2023-02-15T11:25:28;2.80;99.90
45319;DHT22;31057;48.498;32.260;2023-02-15T11:27:31;2.80;99.90
45319;DHT22;31057;48.498;32.260;2023-02-15T11:29:57;2.70;99.90
45319;DHT22;31057;48.498;32.260;2023-02-15T11:32:23;2.70;99.90
45319;DHT22;31057;48.498;32.260;2023-02-15T11:34:27;2.50;99.90
45319;DHT22;31057;48.498;32.260;2023-02-15T11:36:34;2.30;99.90
45319;DHT22;31057;48.498;32.260;2023-02-15T11:38:38;2.30;99.90
45319;DHT22;31057;48.498;32.260;2023-02-15T11:40:48;2.40;99.90
45319;DHT22;31057;48.498;32.260;2023-02-15T11:42:51;2.40;99.90
45319;DHT22;31057;48.498;32.260;2023-02-15T11:45:04;2.50;99.90
45319;DHT22;31057;48.498;32.260;2023-02-15T11:47:11;2.70;99.90
45319;DHT22;31057;48.498;32.260;2023-02-15T11:51:24;2.60;99.90
45319;DHT22;31057;48.498;32.260;2023-02-15T11:53:32;2.50;99.90
45319;DHT22;31057;48.498;32.260;2023-02-15T11:55:34;2.60;99.90
45319;DHT22;31057;48.498;32.260;2023-02-15T11:57:37;2.60;99.90
45319;DHT22;31057;48.498;32.260;2023-02-15T11:59:43;2.40;99.90
45319;DHT22;31057;48.498;32.260;2023-02-15T12:01:46;2.40;99.90
45319;DHT22;31057;48.498;32.260;2023-02-15T12:03:49;2.40;99.90
45319;DHT22;31057;48.498;32.260;2023-02-15T12:06:01;2.30;99.90
45319;DHT22;31057;48.498;32.260;2023-02-15T12:08:04;2.30;99.90
45319;DHT22;31057;48.498;32.260;2023-02-15T12:14:26;2.50;99.90
45319;DHT22;31057;48.498;32.260;2023-02-15T12:16:28;2.70;99.90
45319;DHT22;31057;48.498;32.260;2023-02-15T12:20:32;3.10;99.90
45319;DHT22;31057;48.498;32.260;2023-02-15T12:22:36;3.00;99.90
45319;DHT22;31057;48.498;32.260;2023-02-15T12:24:43;2.80;99.90
45319;DHT22;31057;48.498;32.260;2023-02-15T12:26:55;2.70;99.90
45319;DHT22;31057;48.498;32.260;2023-02-15T12:29:01;2.50;99.90
45319;DHT22;31057;48.498;32.260;2023-02-15T12:31:06;2.30;99.90
45319;DHT22;31057;48.498;32.260;2023-02-15T12:33:26;2.30;99.90
45319;DHT22;31057;48.498;32.260;2023-02-15T12:37:30;2.30;99.90
45319;DHT22;31057;48.498;32.260;2023-02-15T12:39:36;2.40;99.90
45319;DHT22;31057;48.498;32.260;2023-02-15T12:41:38;2.50;99.90
45319;DHT22;31057;48.498;32.260;2023-02-15T12:43:44;2.60;99.90
45319;DHT22;31057;48.498;32.260;2023-02-15T12:45:46;2.70;99.90
45319;DHT22;31057;48.498;32.260;2023-02-15T12:47:51;2.80;99.90
45319;DHT22;31057;48.498;32.260;2023-02-15T12:50:15;2.90;99.90
45319;DHT22;31057;48.498;32.260;2023-02-15T12:52:23;2.80;99.90
45319;DHT22;31057;48.498;32.260;2023-02-15T12:56:31;2.40;99.90
45319;DHT22;31057;48.498;32.260;2023-02-15T13:00:34;2.60;99.90
45319;DHT22;31057;48.498;32.260;2023-02-15T13:02:44;2.60;99.90
45319;DHT22;31057;48.498;32.260;2023-02-15T13:04:48;2.80;99.90
45319;DHT22;31057;48.498;32.260;2023-02-15T13:06:51;2.90;99.90
45319;DHT22;31057;48.498;32.260;2023-02-15T13:08:54;3.00;99.90
45319;DHT22;31057;48.498;32.260;2023-02-15T13:12:59;2.60;99.90
45319;DHT22;31057;48.498;32.260;2023-02-15T13:15:22;2.40;99.90
45319;DHT22;31057;48.498;32.260;2023-02-15T13:17:26;2.30;99.90
45319;DHT22;31057;48.498;32.260;2023-02-15T13:20:05;2.30;99.90
45319;DHT22;31057;48.498;32.260;2023-02-15T13:21:59;2.10;99.90
45319;DHT22;31057;48.498;32.260;2023-02-15T13:24:05;2.30;99.90
45319;DHT22;31057;48.498;32.260;2023-02-15T13:26:09;2.50;99.90
45319;DHT22;31057;48.498;32.260;2023-02-15T13:28:13;2.50;99.90
45319;DHT22;31057;48.498;32.260;2023-02-15T13:34:34;2.50;99.90
45319;DHT22;31057;48.498;32.260;2023-02-15T13:36:44;2.60;99.90
45319;DHT22;31057;48.498;32.260;2023-02-15T13:38:52;2.60;99.90
45319;DHT22;31057;48.498;32.260;2023-02-15T13:41:04;2.40;99.90
45319;DHT22;31057;48.498;32.260;2023-02-15T13:52:41;2.50;99.90
45319;DHT22;31057;48.498;32.260;2023-02-15T14:01:10;2.60;99.90
45319;DHT22;31057;48.498;32.260;2023-02-15T14:07:49;2.50;99.90
45319;DHT22;31057;48.498;32.260;2023-02-15T14:10:12;2.40;99.90
45319;DHT22;31057;48.498;32.260;2023-02-15T14:12:23;2.30;99.90
45319;DHT22;31057;48.498;32.260;2023-02-15T14:14:34;2.30;99.90
45319;DHT22;31057;48.498;32.260;2023-02-15T14:19:13;2.20;99.90
45319;DHT22;31057;48.498;32.260;2023-02-15T14:25:44;2.00;99.90
45319;DHT22;31057;48.498;32.260;2023-02-15T14:30:02;1.90;99.90
45319;DHT22;31057;48.498;32.260;2023-02-15T14:32:10;1.90;99.90
45319;DHT22;31057;48.498;32.260;2023-02-15T14:34:56;2.00;99.90
45319;DHT22;31057;48.498;32.260;2023-02-15T14:36:38;1.90;99.90
45319;DHT22;31057;48.498;32.260;2023-02-15T14:38:50;1.90;99.90
45319;DHT22;31057;48.498;32.260;2023-02-15T14:46:46;1.70;99.90
45319;DHT22;31057;48.498;32.260;2023-02-15T14:48:17;1.70;99.90
45319;DHT22;31057;48.498;32.260;2023-02-15T14:52:33;1.60;99.90
45319;DHT22;31057;48.498;32.260;2023-02-15T14:54:55;1.60;99.90
45319;DHT22;31057;48.498;32.260;2023-02-15T14:59:16;1.50;99.90
45319;DHT22;31057;48.498;32.260;2023-02-15T15:01:34;1.50;99.90
45319;DHT22;31057;48.498;32.260;2023-02-15T15:03:42;1.40;99.90
45319;DHT22;31057;48.498;32.260;2023-02-15T15:05:48;1.40;99.90
45319;DHT22;31057;48.498;32.260;2023-02-15T15:07:52;1.30;99.90
45319;DHT22;31057;48.498;32.260;2023-02-15T15:09:59;1.20;99.90
45319;DHT22;31057;48.498;32.260;2023-02-15T15:20:48;1.00;99.90
45319;DHT22;31057;48.498;32.260;2023-02-15T15:27:47;0.90;99.90
45319;DHT22;31057;48.498;32.260;2023-02-15T15:29:51;0.80;99.90
45319;DHT22;31057;48.498;32.260;2023-02-15T15:31:53;0.70;99.90
45319;DHT22;31057;48.498;32.260;2023-02-15T15:34:15;0.70;99.90
45319;DHT22;31057;48.498;32.260;2023-02-15T15:49:57;0.50;99.90
45319;DHT22;31057;48.498;32.260;2023-02-15T15:52:18;0.50;99.90
45319;DHT22;31057;48.498;32.260;2023-02-15T15:54:22;0.40;99.90
45319;DHT22;31057;48.498;32.260;2023-02-15T15:56:26;0.40;99.90
45319;DHT22;31057;48.498;32.260;2023-02-15T15:58:29;0.30;99.90
45319;DHT22;31057;48.498;32.260;2023-02-15T16:00:35;0.30;99.90
45319;DHT22;31057;48.498;32.260;2023-02-15T16:02:46;0.20;99.90
45319;DHT22;31057;48.498;32.260;2023-02-15T16:04:50;0.20;99.90
45319;DHT22;31057;48.498;32.260;2023-02-15T16:06:52;0.20;99.90
45319;DHT22;31057;48.498;32.260;2023-02-15T16:08:54;0.20;99.90
45319;DHT22;31057;48.498;32.260;2023-02-15T16:10:56;0.10;99.90
45319;DHT22;31057;48.498;32.260;2023-02-15T16:12:59;0.10;99.90